Time;durP1;ratioP1;P1;durP2;ratioP2;P2;SDS_P1;SDS_P2;PMS_P1;PMS_P2;Temp;Humidity;BMP_temperature;BMP_pressure;BME280_temperature;BME280_humidity;BME280_pressure;Samples;Min_cycle;Max_cycle;Signal;HPM_P1;HPM_P2
2023/06/11 00:02:02;;;;;;;;;;;;;;;21.62;65.74;99127.97;4467022;31;34886;-81
2023/06/11 00:04:34;;;;;;;;;;;;;;;21.69;65.49;99128.41;4485573;31;34177;-80
2023/06/11 00:07:05;;;;;;;;;;;;;;;21.78;65.17;99130.44;4485764;31;33845;-82
2023/06/11 00:09:34;;;;;;;;;;;;;;;21.95;64.71;99131.91;4480164;31;33859;-80
2023/06/11 00:12:05;;;;;;;;;;;;;;;22.15;63.78;99139.28;4485192;31;34862;-81
2023/06/11 00:14:34;;;;;;;;;;;;;;;22.51;62.41;99135.03;4481256;31;34710;-81
2023/06/11 00:17:02;;;;;;;;;;;;;;;22.50;62.32;99136.00;4484229;31;33807;-81
2023/06/11 00:19:32;;;;;;;;;;;;;;;22.56;61.80;99142.63;4482750;31;33849;-81
2023/06/11 00:22:02;;;;;;;;;;;;;;;22.47;62.67;99141.50;4491002;31;34948;-80
2023/06/11 00:24:31;;;;;;;;;;;;;;;22.67;62.05;99144.53;4483686;31;34134;-81
2023/06/11 00:27:01;;;;;;;;;;;;;;;22.85;61.02;99150.28;4485721;31;33251;-81
2023/06/11 00:29:34;;;;;;;;;;;;;;;22.82;61.23;99150.50;4482535;31;34226;-82
2023/06/11 00:32:03;;;;;;;;;;;;;;;22.84;61.04;99145.97;4487198;31;34790;-79
2023/06/11 00:34:32;;;;;;;;;;;;;;;22.89;60.68;99149.09;4493790;31;33767;-81
2023/06/11 00:37:02;;;;;;;;;;;;;;;22.91;61.02;99149.84;4482819;31;33561;-81
2023/06/11 00:39:30;;;;;;;;;;;;;;;22.73;61.38;99147.56;4485370;31;34621;-81
2023/06/11 00:41:59;;;;;;;;;;;;;;;22.49;62.30;99149.31;4485821;31;34067;-82
2023/06/11 00:44:29;;;;;;;;;;;;;;;22.96;58.87;99145.06;4486833;31;33902;-81
2023/06/11 00:46:59;;;;;;;;;;;;;;;22.58;60.52;99146.03;4479030;31;34017;-80
2023/06/11 00:49:29;;;;;;;;;;;;;;;22.20;61.19;99151.34;4482671;31;34696;-81
2023/06/11 00:51:58;;;;;;;;;;;;;;;21.90;62.99;99153.34;4486215;31;34112;-81
2023/06/11 00:54:26;;;;;;;;;;;;;;;22.19;61.14;99147.00;4477080;31;35193;-81
2023/06/11 00:56:56;;;;;;;;;;;;;;;21.46;63.91;99146.66;4485250;31;33110;-81
2023/06/11 00:59:25;;;;;;;;;;;;;;;21.23;64.47;99155.22;4487879;31;33570;-80
2023/06/11 01:01:57;;;;;;;;;;;;;;;20.48;66.82;99149.47;4491888;31;34345;-81
2023/06/11 01:04:29;;;;;;;;;;;;;;;21.26;64.13;99147.09;4477673;31;33761;-80
2023/06/11 01:06:59;;;;;;;;;;;;;;;21.67;62.20;99156.69;4492877;31;33778;-80
2023/06/11 01:09:29;;;;;;;;;;;;;;;21.21;63.64;99157.94;4486134;31;33776;-81
2023/06/11 01:11:58;;;;;;;;;;;;;;;21.36;63.62;99149.97;4493700;31;33938;-82
2023/06/11 01:14:27;;;;;;;;;;;;;;;21.54;62.98;99150.56;4482743;31;33569;-80
2023/06/11 01:17:02;;;;;;;;;;;;;;;21.86;61.74;99148.37;4493318;31;33031;-81
2023/06/11 01:19:37;;;;;;;;;;;;;;;21.19;63.60;99149.31;4498176;31;34279;-81
2023/06/11 01:22:13;;;;;;;;;;;;;;;21.13;64.13;99146.22;4486673;31;33872;-82
2023/06/11 01:24:45;;;;;;;;;;;;;;;21.50;62.81;99142.00;4477368;32;35484;-81
2023/06/11 01:27:18;;;;;;;;;;;;;;;21.45;63.48;99138.81;4488813;31;33584;-82
2023/06/11 01:29:49;;;;;;;;;;;;;;;21.51;63.07;99136.62;4492993;31;33760;-81
2023/06/11 01:32:18;;;;;;;;;;;;;;;21.21;63.45;99144.75;4498759;31;34559;-81
2023/06/11 01:34:47;;;;;;;;;;;;;;;21.21;63.34;99147.37;4493362;31;33985;-82
2023/06/11 01:37:17;;;;;;;;;;;;;;;21.40;63.01;99146.22;4493209;31;34174;-81
2023/06/11 01:39:47;;;;;;;;;;;;;;;21.76;61.57;99147.31;4477818;31;32582;-81
2023/06/11 01:42:16;;;;;;;;;;;;;;;21.38;62.09;99146.28;4490905;31;34117;-80
2023/06/11 01:44:45;;;;;;;;;;;;;;;21.11;63.23;99154.22;4493178;31;34444;-80
2023/06/11 01:47:15;;;;;;;;;;;;;;;21.06;63.58;99159.78;4492226;31;33584;-82
2023/06/11 01:49:44;;;;;;;;;;;;;;;21.21;62.76;99155.28;4492976;31;33155;-81
2023/06/11 01:52:12;;;;;;;;;;;;;;;21.69;61.11;99155.66;4496771;31;33633;-81
2023/06/11 01:54:42;;;;;;;;;;;;;;;21.40;61.62;99151.50;4498673;31;35373;-82
2023/06/11 01:57:11;;;;;;;;;;;;;;;21.42;61.79;99155.72;4492012;31;33568;-81
2023/06/11 01:59:40;;;;;;;;;;;;;;;21.90;59.82;99161.28;4476587;32;33746;-81
2023/06/11 02:02:09;;;;;;;;;;;;;;;21.34;61.73;99157.16;4487927;31;34049;-80
2023/06/11 02:04:40;;;;;;;;;;;;;;;21.59;60.38;99165.16;4498287;31;34209;-82
2023/06/11 02:07:09;;;;;;;;;;;;;;;20.83;63.55;99168.34;4489500;31;34014;-82
2023/06/11 02:09:41;;;;;;;;;;;;;;;21.38;61.35;99156.81;4491440;31;35786;-81
2023/06/11 02:12:09;;;;;;;;;;;;;;;21.77;59.79;99167.50;4485690;31;33493;-82
2023/06/11 02:14:38;;;;;;;;;;;;;;;21.74;60.58;99163.25;4482525;32;34693;-82
2023/06/11 02:17:08;;;;;;;;;;;;;;;21.69;59.39;99168.00;4480142;31;34035;-82
2023/06/11 02:19:37;;;;;;;;;;;;;;;21.50;60.58;99165.75;4483037;31;34761;-80
2023/06/11 02:22:07;;;;;;;;;;;;;;;21.53;60.94;99173.50;4492623;31;33978;-81
2023/06/11 02:24:36;;;;;;;;;;;;;;;20.79;63.19;99167.69;4489741;31;33089;-80
2023/06/11 02:27:05;;;;;;;;;;;;;;;21.08;62.31;99167.59;4482353;32;34538;-81
2023/06/11 02:29:34;;;;;;;;;;;;;;;21.05;62.30;99173.94;4477671;32;34157;-81
2023/06/11 02:32:04;;;;;;;;;;;;;;;20.58;63.24;99169.03;4482240;31;34658;-80
2023/06/11 02:34:33;;;;;;;;;;;;;;;20.64;63.47;99173.94;4492685;31;33859;-80
2023/06/11 02:37:01;;;;;;;;;;;;;;;20.40;63.67;99171.84;4489610;31;33496;-80
2023/06/11 02:39:32;;;;;;;;;;;;;;;20.82;62.62;99167.47;4476920;32;33480;-81
2023/06/11 02:42:00;;;;;;;;;;;;;;;20.50;63.52;99160.75;4486867;31;34618;-80
2023/06/11 02:44:29;;;;;;;;;;;;;;;20.32;64.58;99166.22;4481486;31;33418;-81
2023/06/11 02:46:58;;;;;;;;;;;;;;;20.84;63.04;99170.87;4488176;31;33074;-79
2023/06/11 02:49:27;;;;;;;;;;;;;;;21.23;61.32;99157.84;4493250;31;33997;-80
2023/06/11 02:51:55;;;;;;;;;;;;;;;21.02;61.31;99163.59;4479138;31;33700;-81
2023/06/11 02:54:27;;;;;;;;;;;;;;;20.81;62.36;99159.69;4481850;31;35398;-82
2023/06/11 02:56:56;;;;;;;;;;;;;;;21.57;59.95;99158.28;4489811;31;35204;-82
2023/06/11 02:59:25;;;;;;;;;;;;;;;21.54;60.40;99164.59;4492151;31;33285;-81
2023/06/11 03:01:54;;;;;;;;;;;;;;;21.75;59.87;99167.63;4493306;31;32056;-81
2023/06/11 03:04:23;;;;;;;;;;;;;;;21.38;60.60;99161.25;4494826;31;34275;-81
2023/06/11 03:06:52;;;;;;;;;;;;;;;21.38;61.26;99164.75;4494457;31;33596;-81
2023/06/11 03:09:23;;;;;;;;;;;;;;;21.58;60.69;99163.47;4499495;31;34931;-81
2023/06/11 03:11:53;;;;;;;;;;;;;;;21.69;60.19;99166.22;4499559;31;35019;-82
2023/06/11 03:14:24;;;;;;;;;;;;;;;21.21;61.15;99168.50;4494072;31;34886;-81
2023/06/11 03:16:54;;;;;;;;;;;;;;;21.41;60.27;99163.75;4492654;31;32781;-81
2023/06/11 03:19:22;;;;;;;;;;;;;;;21.57;60.15;99169.69;4491971;31;34121;-81
2023/06/11 03:21:51;;;;;;;;;;;;;;;21.61;59.25;99165.91;4493062;31;35029;-81
2023/06/11 03:24:20;;;;;;;;;;;;;;;21.62;58.99;99169.38;4489191;31;34812;-82
2023/06/11 03:26:51;;;;;;;;;;;;;;;21.41;59.89;99163.75;4491903;31;33418;-81
2023/06/11 03:29:19;;;;;;;;;;;;;;;21.57;59.92;99172.31;4493812;31;34244;-81
2023/06/11 03:31:50;;;;;;;;;;;;;;;21.59;59.54;99172.22;4491429;31;33798;-80
2023/06/11 03:34:20;;;;;;;;;;;;;;;21.76;59.18;99179.00;4489694;31;34215;-80
2023/06/11 03:36:50;;;;;;;;;;;;;;;21.66;58.61;99174.34;4489003;31;33736;-82
2023/06/11 03:39:18;;;;;;;;;;;;;;;21.01;61.30;99182.97;4494234;31;33785;-81
2023/06/11 03:41:48;;;;;;;;;;;;;;;21.76;58.76;99179.00;4492975;31;34917;-81
2023/06/11 03:44:19;;;;;;;;;;;;;;;21.88;58.68;99181.66;4493035;31;33089;-80
2023/06/11 03:46:48;;;;;;;;;;;;;;;21.29;60.31;99181.19;4481976;31;32871;-82
2023/06/11 03:49:19;;;;;;;;;;;;;;;20.98;61.47;99177.06;4489084;31;34842;-80
2023/06/11 03:51:48;;;;;;;;;;;;;;;21.13;60.36;99177.87;4484054;31;32975;-81
2023/06/11 03:54:16;;;;;;;;;;;;;;;20.80;62.27;99185.22;4483425;31;34317;-81
2023/06/11 03:56:45;;;;;;;;;;;;;;;21.39;59.97;99181.44;4487618;31;34303;-81
2023/06/11 03:59:14;;;;;;;;;;;;;;;21.62;59.49;99185.22;4478849;31;34334;-81
2023/06/11 04:01:43;;;;;;;;;;;;;;;21.49;59.96;99186.03;4485618;31;33906;-80
2023/06/11 04:04:12;;;;;;;;;;;;;;;21.41;60.05;99184.87;4484925;31;34936;-81
2023/06/11 04:06:42;;;;;;;;;;;;;;;21.46;59.90;99188.88;4484201;31;33147;-81
2023/06/11 04:09:12;;;;;;;;;;;;;;;21.20;60.58;99195.81;4486420;31;34135;-81
2023/06/11 04:11:41;;;;;;;;;;;;;;;20.93;61.17;99190.53;4482678;31;33994;-81
2023/06/11 04:14:09;;;;;;;;;;;;;;;21.25;60.57;99198.16;4492483;31;34132;-80
2023/06/11 04:16:38;;;;;;;;;;;;;;;21.01;60.89;99197.97;4494613;31;32809;-81
2023/06/11 04:19:07;;;;;;;;;;;;;;;21.50;59.04;99193.00;4484693;31;33488;-81
2023/06/11 04:21:36;;;;;;;;;;;;;;;21.49;59.87;99196.59;4489398;31;34616;-81
2023/06/11 04:24:06;;;;;;;;;;;;;;;21.25;59.93;99195.53;4480550;31;34265;-80
2023/06/11 04:26:43;;;;;;;;;;;;;;;21.68;58.74;99193.56;4470090;31;32546;-81
2023/06/11 04:29:13;;;;;;;;;;;;;;;21.12;60.47;99198.13;4495803;31;35289;-82
2023/06/11 04:31:46;;;;;;;;;;;;;;;21.34;59.28;99196.72;4479982;31;33615;-81
2023/06/11 04:34:17;;;;;;;;;;;;;;;21.48;58.57;99196.69;4485690;31;33761;-82
2023/06/11 04:36:47;;;;;;;;;;;;;;;21.95;57.51;99200.59;4485310;31;33007;-80
2023/06/11 04:39:19;;;;;;;;;;;;;;;21.67;59.03;99201.59;4499088;31;34102;-82
2023/06/11 04:41:51;;;;;;;;;;;;;;;22.07;57.57;99201.53;4494043;31;34319;-81
2023/06/11 04:44:20;;;;;;;;;;;;;;;21.50;58.25;99202.69;4493035;31;33612;-82
2023/06/11 04:46:56;;;;;;;;;;;;;;;21.80;57.82;99199.00;4477454;31;33357;-82
2023/06/11 04:49:27;;;;;;;;;;;;;;;22.29;56.26;99206.22;4477245;31;33649;-81
2023/06/11 04:51:58;;;;;;;;;;;;;;;22.25;56.61;99204.72;4495059;31;33938;-80
2023/06/11 04:54:28;;;;;;;;;;;;;;;22.18;57.10;99206.94;4488717;31;34390;-82
2023/06/11 04:56:58;;;;;;;;;;;;;;;21.58;59.26;99208.34;4479325;31;34015;-80
2023/06/11 04:59:27;;;;;;;;;;;;;;;22.06;56.34;99199.84;4488262;31;34267;-81
2023/06/11 05:01:56;;;;;;;;;;;;;;;22.04;56.56;99194.69;4480784;31;33764;-82
2023/06/11 05:04:27;;;;;;;;;;;;;;;21.56;57.77;99194.41;4490830;31;33081;-82
2023/06/11 05:06:57;;;;;;;;;;;;;;;21.67;57.79;99199.81;4476675;31;34165;-82
2023/06/11 05:09:28;;;;;;;;;;;;;;;22.15;57.00;99199.22;4480872;31;34590;-82
2023/06/11 05:11:57;;;;;;;;;;;;;;;22.10;57.68;99202.16;4484180;31;33953;-81
2023/06/11 05:14:25;;;;;;;;;;;;;;;22.41;56.93;99207.16;4490196;31;34027;-82
2023/06/11 05:16:55;;;;;;;;;;;;;;;22.53;56.11;99207.16;4484482;31;33080;-81
2023/06/11 05:19:24;;;;;;;;;;;;;;;22.72;55.34;99217.28;4484711;31;33964;-81
2023/06/11 05:21:53;;;;;;;;;;;;;;;22.57;55.17;99206.00;4485839;31;33603;-81
2023/06/11 05:24:28;;;;;;;;;;;;;;;22.70;54.96;99205.94;4492440;31;34793;-83
2023/06/11 05:26:59;;;;;;;;;;;;;;;22.41;57.25;99199.25;4492694;31;33897;-81
2023/06/11 05:29:28;;;;;;;;;;;;;;;23.16;54.15;99207.97;4483277;31;34437;-80
2023/06/11 05:31:58;;;;;;;;;;;;;;;23.13;54.50;99204.72;4484314;31;33564;-81
2023/06/11 05:34:30;;;;;;;;;;;;;;;23.53;53.42;99212.34;4480417;31;34806;-82
2023/06/11 05:36:59;;;;;;;;;;;;;;;23.55;53.35;99205.12;4489696;31;33426;-82
2023/06/11 05:39:28;;;;;;;;;;;;;;;23.70;51.72;99213.72;4489135;31;33923;-82
2023/06/11 05:41:59;;;;;;;;;;;;;;;23.41;52.21;99214.97;4488171;31;34132;-81
2023/06/11 05:44:28;;;;;;;;;;;;;;;23.82;50.53;99216.34;4491137;31;34158;-82
2023/06/11 05:46:58;;;;;;;;;;;;;;;24.21;50.13;99211.59;4491152;31;33567;-82
2023/06/11 05:49:26;;;;;;;;;;;;;;;24.35;49.43;99212.34;4489500;31;34813;-81
2023/06/11 05:51:55;;;;;;;;;;;;;;;24.54;49.98;99211.78;4476880;31;35313;-81
2023/06/11 05:54:24;;;;;;;;;;;;;;;23.99;49.83;99214.19;4476072;31;33853;-82
2023/06/11 05:56:53;;;;;;;;;;;;;;;24.19;50.45;99225.94;4485290;31;33143;-82
2023/06/11 05:59:23;;;;;;;;;;;;;;;23.67;51.44;99214.81;4495627;31;35029;-82
2023/06/11 06:01:53;;;;;;;;;;;;;;;23.78;51.38;99216.69;4484443;31;33664;-81
2023/06/11 06:04:22;;;;;;;;;;;;;;;23.16;52.82;99220.34;4477696;31;33925;-83
2023/06/11 06:06:51;;;;;;;;;;;;;;;23.70;51.54;99224.31;4480579;31;34032;-82
2023/06/11 06:09:19;;;;;;;;;;;;;;;23.81;51.38;99227.06;4481641;32;33647;-82
2023/06/11 06:11:53;;;;;;;;;;;;;;;23.42;51.77;99229.03;4484260;31;35219;-81
2023/06/11 06:14:21;;;;;;;;;;;;;;;23.11;53.03;99227.78;4488778;31;34326;-81
2023/06/11 06:16:52;;;;;;;;;;;;;;;23.64;52.50;99231.78;4484138;31;32864;-80
2023/06/11 06:19:22;;;;;;;;;;;;;;;22.97;53.70;99234.88;4475368;31;32493;-81
2023/06/11 06:21:52;;;;;;;;;;;;;;;22.99;53.79;99230.34;4485180;31;34671;-83
2023/06/11 06:24:21;;;;;;;;;;;;;;;22.73;54.72;99224.25;4486497;31;34987;-81
2023/06/11 06:26:56;;;;;;;;;;;;;;;22.83;54.33;99231.53;4491824;31;33043;-82
2023/06/11 06:29:26;;;;;;;;;;;;;;;22.23;56.38;99227.78;4482422;31;35021;-80
2023/06/11 06:31:57;;;;;;;;;;;;;;;22.22;56.18;99224.28;4489644;31;33549;-81
2023/06/11 06:34:27;;;;;;;;;;;;;;;22.79;55.07;99236.19;4488304;31;33666;-82
2023/06/11 06:36:55;;;;;;;;;;;;;;;22.33;56.60;99234.97;4482782;31;34112;-81
2023/06/11 06:39:24;;;;;;;;;;;;;;;23.12;54.32;99240.03;4492687;31;33725;-80
2023/06/11 06:41:54;;;;;;;;;;;;;;;23.09;53.77;99246.41;4489090;31;34555;-81
2023/06/11 06:44:22;;;;;;;;;;;;;;;22.27;56.81;99239.81;4483452;31;33555;-82
2023/06/11 06:46:53;;;;;;;;;;;;;;;22.85;55.44;99241.03;4478317;31;33723;-84
2023/06/11 06:49:24;;;;;;;;;;;;;;;23.03;55.27;99246.00;4476709;31;33165;-84
2023/06/11 06:51:53;;;;;;;;;;;;;;;23.04;54.89;99242.41;4489005;31;33942;-82
2023/06/11 06:54:22;;;;;;;;;;;;;;;22.75;55.21;99242.66;4499429;31;33941;-83
2023/06/11 06:56:53;;;;;;;;;;;;;;;22.94;54.60;99250.12;4481393;31;34016;-81
2023/06/11 06:59:22;;;;;;;;;;;;;;;22.56;55.56;99246.56;4488384;31;33954;-81
2023/06/11 07:01:51;;;;;;;;;;;;;;;23.16;53.41;99244.16;4477575;31;34426;-82
2023/06/11 07:04:20;;;;;;;;;;;;;;;23.63;53.09;99256.56;4485689;31;35009;-81
2023/06/11 07:06:50;;;;;;;;;;;;;;;22.79;53.84;99249.41;4498168;31;34041;-81
2023/06/11 07:09:19;;;;;;;;;;;;;;;23.41;52.98;99249.38;4485906;31;33998;-81
2023/06/11 07:11:49;;;;;;;;;;;;;;;22.59;55.89;99245.50;4494209;31;35056;-82
2023/06/11 07:14:17;;;;;;;;;;;;;;;22.76;54.35;99255.78;4493174;31;33432;-81
2023/06/11 07:16:47;;;;;;;;;;;;;;;23.13;54.05;99250.53;4484085;31;33472;-81
2023/06/11 07:19:15;;;;;;;;;;;;;;;23.43;53.97;99258.03;4485037;31;34457;-82
2023/06/11 07:21:44;;;;;;;;;;;;;;;23.36;54.04;99254.13;4492029;31;34134;-82
2023/06/11 07:24:16;;;;;;;;;;;;;;;23.38;52.65;99252.22;4490031;31;34010;-82
2023/06/11 07:26:45;;;;;;;;;;;;;;;23.66;51.14;99255.50;4487854;31;32944;-81
2023/06/11 07:29:14;;;;;;;;;;;;;;;23.45;52.79;99252.63;4488725;31;33287;-83
2023/06/11 07:31:43;;;;;;;;;;;;;;;24.05;51.03;99254.34;4492383;31;34336;-81
2023/06/11 07:34:12;;;;;;;;;;;;;;;24.08;50.41;99255.91;4486408;31;33567;-80
2023/06/11 07:36:41;;;;;;;;;;;;;;;24.25;50.06;99259.91;4488648;31;34105;-83
2023/06/11 07:39:11;;;;;;;;;;;;;;;23.59;51.94;99256.91;4496581;31;34019;-81
2023/06/11 07:41:41;;;;;;;;;;;;;;;23.74;50.93;99260.25;4487477;31;34339;-81
2023/06/11 07:44:11;;;;;;;;;;;;;;;23.73;52.41;99261.19;4479949;31;34343;-81
2023/06/11 07:46:39;;;;;;;;;;;;;;;24.00;52.04;99263.59;4487109;31;32242;-81
2023/06/11 07:49:09;;;;;;;;;;;;;;;23.90;50.88;99263.44;4494684;31;34187;-81
2023/06/11 07:51:38;;;;;;;;;;;;;;;24.17;50.41;99263.16;4495560;31;34188;-81
2023/06/11 07:54:07;;;;;;;;;;;;;;;24.00;51.26;99261.78;4485346;31;33704;-82
2023/06/11 07:56:36;;;;;;;;;;;;;;;24.12;50.52;99257.38;4492497;31;33031;-80
2023/06/11 07:59:06;;;;;;;;;;;;;;;24.62;49.74;99270.34;4489818;31;33376;-81
2023/06/11 08:01:36;;;;;;;;;;;;;;;24.73;48.91;99265.06;4496640;31;33590;-80
2023/06/11 08:04:05;;;;;;;;;;;;;;;24.72;48.90;99267.81;4490854;31;34267;-82
2023/06/11 08:06:35;;;;;;;;;;;;;;;24.55;50.16;99275.31;4491430;31;34002;-81
2023/06/11 08:09:04;;;;;;;;;;;;;;;24.36;50.46;99280.31;4477715;31;34429;-81
2023/06/11 08:11:33;;;;;;;;;;;;;;;24.68;49.98;99280.50;4492730;31;34957;-81
2023/06/11 08:14:01;;;;;;;;;;;;;;;25.19;48.64;99276.50;4492015;31;35113;-82
2023/06/11 08:16:32;;;;;;;;;;;;;;;25.29;48.26;99266.81;4487280;31;31321;-81
2023/06/11 08:19:01;;;;;;;;;;;;;;;25.78;47.82;99270.75;4485426;31;33211;-81
2023/06/11 08:21:29;;;;;;;;;;;;;;;26.30;45.46;99271.72;4485133;31;34947;-81
2023/06/11 08:23:59;;;;;;;;;;;;;;;26.29;45.01;99263.88;4494022;31;34107;-82
2023/06/11 08:26:29;;;;;;;;;;;;;;;26.69;44.96;99265.81;4488592;31;33488;-83
2023/06/11 08:28:57;;;;;;;;;;;;;;;26.44;45.69;99267.91;4490355;31;33503;-81
2023/06/11 08:31:26;;;;;;;;;;;;;;;25.75;46.87;99279.81;4481921;31;35011;-81
2023/06/11 08:33:56;;;;;;;;;;;;;;;26.07;45.80;99275.47;4487860;31;35326;-81
2023/06/11 08:36:25;;;;;;;;;;;;;;;26.01;47.10;99281.34;4489598;31;33051;-81
2023/06/11 08:38:54;;;;;;;;;;;;;;;25.20;48.16;99275.53;4477732;31;34126;-81
2023/06/11 08:41:23;;;;;;;;;;;;;;;24.96;49.17;99280.94;4488893;31;34832;-81
2023/06/11 08:43:52;;;;;;;;;;;;;;;25.91;45.81;99287.41;4490149;31;34558;-83
2023/06/11 08:46:23;;;;;;;;;;;;;;;25.77;46.86;99285.84;4496308;31;33650;-82
2023/06/11 08:48:55;;;;;;;;;;;;;;;25.74;45.93;99280.81;4489069;31;34884;-81
2023/06/11 08:51:26;;;;;;;;;;;;;;;25.61;47.03;99276.63;4490407;31;34170;-82
2023/06/11 08:53:55;;;;;;;;;;;;;;;26.04;46.47;99287.22;4490391;31;34105;-81
2023/06/11 08:56:24;;;;;;;;;;;;;;;25.82;46.63;99284.66;4498504;31;34139;-82
2023/06/11 08:58:53;;;;;;;;;;;;;;;26.08;46.11;99272.72;4486975;31;34676;-82
2023/06/11 09:01:22;;;;;;;;;;;;;;;25.72;47.48;99281.91;4489888;31;34323;-82
2023/06/11 09:03:51;;;;;;;;;;;;;;;25.96;46.21;99282.56;4493094;31;34075;-80
2023/06/11 09:06:20;;;;;;;;;;;;;;;26.11;46.66;99277.75;4490484;31;33084;-81
2023/06/11 09:08:57;;;;;;;;;;;;;;;25.96;46.41;99279.91;4497420;31;33755;-81
2023/06/11 09:11:31;;;;;;;;;;;;;;;25.85;46.14;99281.72;4492003;31;34041;-82
2023/06/11 09:13:59;;;;;;;;;;;;;;;26.00;46.49;99275.19;4488678;31;34960;-82
2023/06/11 09:16:37;;;;;;;;;;;;;;;25.88;46.19;99281.53;4488308;31;32827;-81
2023/06/11 09:19:08;;;;;;;;;;;;;;;25.55;47.24;99281.47;4491001;31;33930;-81
2023/06/11 09:21:38;;;;;;;;;;;;;;;25.65;46.38;99280.72;4477242;31;34940;-81
2023/06/11 09:24:08;;;;;;;;;;;;;;;25.15;48.13;99275.88;4492208;31;34770;-81
2023/06/11 09:26:36;;;;;;;;;;;;;;;25.95;46.30;99282.66;4479584;31;33282;-81
2023/06/11 09:29:05;;;;;;;;;;;;;;;25.77;46.75;99279.72;4493216;31;33919;-81
2023/06/11 09:31:34;;;;;;;;;;;;;;;25.91;45.50;99282.09;4497412;31;33866;-81
2023/06/11 09:34:06;;;;;;;;;;;;;;;26.42;44.43;99287.63;4479524;31;34087;-78
2023/06/11 09:36:35;;;;;;;;;;;;;;;26.59;44.49;99285.22;4481143;31;33345;-82
2023/06/11 09:39:04;;;;;;;;;;;;;;;26.77;44.15;99289.91;4486943;31;33788;-81
2023/06/11 09:41:34;;;;;;;;;;;;;;;26.99;44.06;99288.88;4493946;31;35203;-81
2023/06/11 09:44:03;;;;;;;;;;;;;;;27.16;43.15;99279.41;4491041;31;33156;-81
2023/06/11 09:46:31;;;;;;;;;;;;;;;26.91;43.67;99281.56;4484764;31;34085;-82
2023/06/11 09:49:00;;;;;;;;;;;;;;;27.00;42.81;99285.25;4482040;31;33801;-81
2023/06/11 09:51:29;;;;;;;;;;;;;;;26.91;43.69;99286.06;4484009;31;35119;-81
2023/06/11 09:53:58;;;;;;;;;;;;;;;25.89;45.85;99283.19;4488714;31;33426;-81
2023/06/11 09:56:27;;;;;;;;;;;;;;;26.18;46.12;99276.28;4482952;31;33421;-81
2023/06/11 09:58:57;;;;;;;;;;;;;;;27.20;43.35;99284.34;4487397;31;34764;-82
2023/06/11 10:01:27;;;;;;;;;;;;;;;26.37;44.68;99283.53;4484442;31;34532;-82
2023/06/11 10:03:58;;;;;;;;;;;;;;;26.78;44.26;99287.13;4487831;31;33962;-81
2023/06/11 10:06:28;;;;;;;;;;;;;;;26.98;43.63;99285.37;4490931;31;32444;-81
2023/06/11 10:08:58;;;;;;;;;;;;;;;26.49;44.94;99286.13;4470378;31;34010;-81
2023/06/11 10:11:26;;;;;;;;;;;;;;;26.93;44.13;99279.63;4487743;31;33852;-80
2023/06/11 10:14:00;;;;;;;;;;;;;;;27.24;43.36;99283.09;4489291;31;35229;-83
2023/06/11 10:16:29;;;;;;;;;;;;;;;26.48;45.03;99279.97;4496719;31;32790;-81
2023/06/11 10:19:06;;;;;;;;;;;;;;;26.84;44.27;99288.41;4492808;31;34652;-81
2023/06/11 10:21:36;;;;;;;;;;;;;;;26.38;44.87;99290.53;4467782;31;32737;-81
2023/06/11 10:24:05;;;;;;;;;;;;;;;26.48;44.21;99284.41;4489694;31;34850;-81
2023/06/11 10:26:35;;;;;;;;;;;;;;;26.08;46.01;99285.16;4490283;31;32757;-81
2023/06/11 10:29:10;;;;;;;;;;;;;;;26.74;43.74;99277.72;4485002;31;34215;-83
2023/06/11 10:31:41;;;;;;;;;;;;;;;27.00;42.34;99275.44;4481708;31;33298;-81
2023/06/11 10:34:13;;;;;;;;;;;;;;;27.20;43.05;99280.84;4490915;31;34062;-81
2023/06/11 10:36:42;;;;;;;;;;;;;;;26.93;42.84;99276.94;4492107;31;33178;-81
2023/06/11 10:39:14;;;;;;;;;;;;;;;26.88;43.11;99278.34;4497400;31;34797;-82
2023/06/11 10:41:43;;;;;;;;;;;;;;;27.09;42.21;99273.78;4492653;31;34295;-81
2023/06/11 10:44:15;;;;;;;;;;;;;;;26.72;43.67;99268.19;4492723;31;33717;-81
2023/06/11 10:46:47;;;;;;;;;;;;;;;26.88;43.96;99273.03;4491732;31;32993;-82
2023/06/11 10:49:16;;;;;;;;;;;;;;;26.95;44.33;99268.84;4493239;31;34790;-80
2023/06/11 10:51:45;;;;;;;;;;;;;;;27.05;44.40;99271.53;4497537;31;34702;-81
2023/06/11 10:54:23;;;;;;;;;;;;;;;26.49;45.72;99268.34;4492359;31;34030;-81
2023/06/11 10:56:52;;;;;;;;;;;;;;;26.62;44.31;99265.47;4492463;31;32959;-81
2023/06/11 10:59:22;;;;;;;;;;;;;;;26.50;44.57;99271.84;4492026;31;34794;-81
2023/06/11 11:01:52;;;;;;;;;;;;;;;26.65;44.30;99269.69;4497131;31;33319;-81
2023/06/11 11:04:28;;;;;;;;;;;;;;;26.79;44.14;99267.50;4491839;31;34259;-82
2023/06/11 11:07:03;;;;;;;;;;;;;;;26.22;46.44;99268.87;4490424;31;33373;-83
2023/06/11 11:09:32;;;;;;;;;;;;;;;26.86;43.98;99261.66;4476577;32;33855;-80
2023/06/11 11:12:01;;;;;;;;;;;;;;;26.79;44.25;99267.50;4480740;31;34889;-82
2023/06/11 11:14:31;;;;;;;;;;;;;;;27.33;43.81;99269.94;4499306;31;35314;-80
2023/06/11 11:17:00;;;;;;;;;;;;;;;27.39;42.94;99269.41;4494263;31;32602;-81
2023/06/11 11:19:30;;;;;;;;;;;;;;;27.48;43.02;99263.25;4485559;31;34875;-82
2023/06/11 11:21:58;;;;;;;;;;;;;;;27.22;44.24;99258.44;4482235;31;35102;-80
2023/06/11 11:24:27;;;;;;;;;;;;;;;25.72;46.88;99256.19;4499504;31;34401;-81
2023/06/11 11:26:56;;;;;;;;;;;;;;;25.57;47.57;99261.94;4494330;31;34637;-82
2023/06/11 11:29:24;;;;;;;;;;;;;;;26.16;46.35;99259.59;4493914;31;34868;-80
2023/06/11 11:31:55;;;;;;;;;;;;;;;26.50;45.49;99255.88;4495039;31;34274;-82
2023/06/11 11:34:24;;;;;;;;;;;;;;;26.59;46.13;99257.78;4494153;31;34099;-81
2023/06/11 11:36:54;;;;;;;;;;;;;;;26.59;45.32;99257.78;4498836;31;33628;-81
2023/06/11 11:39:23;;;;;;;;;;;;;;;26.88;44.04;99265.03;4494130;31;34183;-81
2023/06/11 11:41:52;;;;;;;;;;;;;;;26.53;45.62;99263.59;4493959;31;33818;-82
2023/06/11 11:44:22;;;;;;;;;;;;;;;26.87;44.25;99264.19;4494374;31;34691;-81
2023/06/11 11:46:57;;;;;;;;;;;;;;;26.56;45.87;99248.25;4499059;31;34073;-81
2023/06/11 11:49:31;;;;;;;;;;;;;;;26.92;45.02;99250.50;4494176;31;34022;-81
2023/06/11 11:52:02;;;;;;;;;;;;;;;26.91;44.39;99251.44;4493729;31;35130;-81
2023/06/11 11:54:31;;;;;;;;;;;;;;;27.44;44.15;99256.50;4493717;31;33775;-82
2023/06/11 11:57:02;;;;;;;;;;;;;;;27.49;43.43;99258.75;4494043;31;33733;-82
2023/06/11 11:59:37;;;;;;;;;;;;;;;27.23;43.85;99252.13;4499257;31;34826;-81
2023/06/11 12:02:08;;;;;;;;;;;;;;;26.83;44.79;99256.63;4496277;31;33443;-82
2023/06/11 12:04:37;;;;;;;;;;;;;;;26.95;45.57;99245.72;4494160;31;33645;-81
2023/06/11 12:07:07;;;;;;;;;;;;;;;26.91;45.35;99254.94;4491001;31;33251;-83
2023/06/11 12:09:37;;;;;;;;;;;;;;;26.93;46.35;99255.66;4479933;32;34383;-82
2023/06/11 12:12:07;;;;;;;;;;;;;;;26.60;46.72;99251.47;4483268;32;34462;-83
2023/06/11 12:14:35;;;;;;;;;;;;;;;26.39;47.50;99239.03;4486837;31;34306;-83
2023/06/11 12:17:07;;;;;;;;;;;;;;;26.60;47.82;99235.50;4494046;31;34182;-82
2023/06/11 12:19:37;;;;;;;;;;;;;;;26.47;48.34;99245.50;4484628;31;34062;-81
2023/06/11 12:22:06;;;;;;;;;;;;;;;26.88;46.99;99249.06;4487585;31;34728;-81
2023/06/11 12:24:36;;;;;;;;;;;;;;;26.56;48.00;99245.59;4492685;31;33577;-82
2023/06/11 12:27:06;;;;;;;;;;;;;;;26.46;49.39;99249.13;4486943;31;32530;-81
2023/06/11 12:29:39;;;;;;;;;;;;;;;25.73;55.59;99257.88;4483919;31;33975;-79
2023/06/11 12:32:12;;;;;;;;;;;;;;;25.22;65.46;99255.84;4485958;31;33853;-79
2023/06/11 12:34:42;;;;;;;;;;;;;;;24.25;69.86;99258.09;4489094;31;35179;-80
2023/06/11 12:37:12;;;;;;;;;;;;;;;23.70;70.87;99256.94;4451630;31;1115109;-80
2023/06/11 12:39:43;;;;;;;;;;;;;;;23.94;75.17;99256.09;4491283;31;33753;-80
2023/06/11 12:42:13;;;;;;;;;;;;;;;24.25;70.59;99255.44;4489296;31;34333;-80
2023/06/11 12:44:45;;;;;;;;;;;;;;;23.98;68.47;99253.09;4496849;31;33151;-81
2023/06/11 12:47:15;;;;;;;;;;;;;;;24.20;70.29;99254.97;4492617;31;34012;-81
2023/06/11 12:49:45;;;;;;;;;;;;;;;24.42;68.80;99255.97;4492599;31;34104;-80
2023/06/11 12:52:13;;;;;;;;;;;;;;;24.51;66.77;99246.50;4489826;31;33468;-81
2023/06/11 12:54:42;;;;;;;;;;;;;;;24.84;66.35;99246.50;4493276;31;33383;-81
2023/06/11 12:57:12;;;;;;;;;;;;;;;25.08;63.74;99249.00;4498220;31;33435;-81
2023/06/11 12:59:41;;;;;;;;;;;;;;;25.12;63.45;99245.09;4491632;31;34926;-80
2023/06/11 13:02:10;;;;;;;;;;;;;;;25.15;61.05;99243.16;4491807;31;33637;-81